createdAt,value
2022-11-29T07:13:29.942Z,3.47
2022-11-29T07:16:18.166Z,3.40
2022-11-29T07:18:45.217Z,3.53
2022-11-29T07:21:35.255Z,3.60
2022-11-29T07:24:05.311Z,3.60
2022-11-29T07:26:59.290Z,3.50
2022-11-29T07:29:45.720Z,3.75
2022-11-29T07:32:23.939Z,3.53
2022-11-29T07:35:00.420Z,3.70
2022-11-29T07:37:46.642Z,3.92
2022-11-29T07:40:13.629Z,3.47
2022-11-29T07:42:49.826Z,3.90
2022-11-29T07:45:33.044Z,3.63
2022-11-29T07:48:00.252Z,3.60
2022-11-29T07:50:27.926Z,3.67
2022-11-29T07:52:55.881Z,3.40
2022-11-29T07:55:24.146Z,3.45
2022-11-29T07:57:51.584Z,3.47
2022-11-29T08:00:19.273Z,3.58
2022-11-29T08:02:46.923Z,3.60
2022-11-29T08:05:14.060Z,3.72
2022-11-29T08:07:41.847Z,3.47
2022-11-29T08:10:10.496Z,3.60
2022-11-29T08:12:37.865Z,3.80
2022-11-29T08:15:06.852Z,3.80
2022-11-29T08:17:33.879Z,3.97
2022-11-29T08:20:03.999Z,3.63
2022-11-29T08:22:31.627Z,3.85
2022-11-29T08:24:59.831Z,3.60
2022-11-29T08:27:28.440Z,3.70
2022-11-29T08:29:55.541Z,3.40
2022-11-29T08:32:22.596Z,3.13
2022-11-29T08:34:49.696Z,3.70
2022-11-29T08:37:16.988Z,3.60
2022-11-29T08:39:44.313Z,3.50
2022-11-29T08:42:12.518Z,3.50
2022-11-29T08:44:39.532Z,3.53
2022-11-29T08:47:25.550Z,3.58
2022-11-29T08:50:03.335Z,3.50
2022-11-29T08:52:50.101Z,3.60
2022-11-29T08:55:17.743Z,3.20
2022-11-29T08:57:44.748Z,3.40
2022-11-29T09:00:12.490Z,3.53
2022-11-29T09:02:40.026Z,3.58
2022-11-29T09:05:07.778Z,3.80
2022-11-29T09:07:35.065Z,3.58
2022-11-29T09:10:06.097Z,3.33
2022-11-29T09:12:33.553Z,3.20
2022-11-29T09:15:00.915Z,3.33
2022-11-29T09:17:27.981Z,3.20
2022-11-29T09:19:55.006Z,3.58
2022-11-29T09:22:22.146Z,3.40
2022-11-29T09:24:49.247Z,3.80
2022-11-29T09:27:16.442Z,3.30
2022-11-29T09:29:43.489Z,3.40
2022-11-29T09:32:10.783Z,3.80
2022-11-29T09:34:37.855Z,3.42
2022-11-29T09:37:05.423Z,3.65
2022-11-29T09:39:33.645Z,3.50
2022-11-29T09:42:03.655Z,3.40
2022-11-29T09:44:38.362Z,3.65
2022-11-29T09:47:11.633Z,3.47
2022-11-29T09:49:47.868Z,3.50
2022-11-29T09:52:53.693Z,3.10
2022-11-29T09:55:53.695Z,3.80
2022-11-29T09:58:22.052Z,3.60
2022-11-29T10:00:50.378Z,3.45
2022-11-29T10:03:20.585Z,3.70
2022-11-29T10:05:52.888Z,3.70
2022-11-29T10:08:26.775Z,3.40
2022-11-29T10:10:56.852Z,3.50
2022-11-29T10:13:26.664Z,3.95
2022-11-29T10:15:55.500Z,3.60
2022-11-29T10:18:33.018Z,3.53
2022-11-29T10:21:03.577Z,3.92
2022-11-29T10:23:37.003Z,4.10
2022-11-29T10:26:07.878Z,4.00
2022-11-29T10:28:37.525Z,4.05
2022-11-29T10:31:24.979Z,4.30
2022-11-29T10:33:52.080Z,5.05
2022-11-29T10:36:31.221Z,4.00
2022-11-29T10:39:01.698Z,4.10
2022-11-29T10:41:28.699Z,4.18
2022-11-29T10:43:57.928Z,3.90
2022-11-29T10:46:32.207Z,3.80
2022-11-29T10:49:00.298Z,3.80
2022-11-29T10:51:44.731Z,3.78
2022-11-29T10:54:20.568Z,4.05
2022-11-29T10:56:48.205Z,3.47
2022-11-29T10:59:23.205Z,4.30
2022-11-29T11:01:51.012Z,4.03
2022-11-29T11:04:22.998Z,3.60
2022-11-29T11:06:52.151Z,3.53
2022-11-29T11:09:28.666Z,4.17
2022-11-29T11:11:57.798Z,3.95
2022-11-29T11:14:36.248Z,4.03
2022-11-29T11:17:25.858Z,3.78
2022-11-29T11:20:31.922Z,4.50
2022-11-29T11:23:03.507Z,4.07
2022-11-29T11:25:34.542Z,3.80
2022-11-29T11:28:20.377Z,3.80
2022-11-29T11:30:58.096Z,3.60
2022-11-29T11:33:27.213Z,4.25
2022-11-29T11:36:13.207Z,4.18
2022-11-29T11:39:00.489Z,4.13
2022-11-29T11:41:47.994Z,4.17
2022-11-29T11:44:46.760Z,4.15
2022-11-29T11:47:24.669Z,4.03
2022-11-29T11:49:54.621Z,3.70
2022-11-29T11:52:26.310Z,4.35
2022-11-29T11:54:58.614Z,4.50
2022-11-29T11:57:26.855Z,4.22
2022-11-29T11:59:55.549Z,4.10
2022-11-29T12:02:30.811Z,4.22
2022-11-29T12:04:59.502Z,3.70
2022-11-29T12:10:40.024Z,4.50
2022-11-29T12:13:17.992Z,3.88
2022-11-29T12:15:45.805Z,4.25
2022-11-29T12:18:27.498Z,4.30
2022-11-29T12:21:13.311Z,3.92
2022-11-29T12:23:54.194Z,4.10
2022-11-29T12:29:22.799Z,4.30
2022-11-29T12:32:00.841Z,4.00
2022-11-29T12:34:31.147Z,3.70
2022-11-29T12:37:08.702Z,4.47
2022-11-29T12:39:55.880Z,4.10
2022-11-29T12:42:25.817Z,4.30
2022-11-29T12:45:02.266Z,4.10
2022-11-29T12:47:36.746Z,4.43
2022-11-29T12:50:05.047Z,4.18
2022-11-29T12:52:46.353Z,4.20
2022-11-29T12:55:20.839Z,4.57
2022-11-29T12:57:54.052Z,4.32
2022-11-29T13:00:21.674Z,4.15
2022-11-29T13:03:07.648Z,4.50
2022-11-29T13:05:42.599Z,4.30
2022-11-29T13:08:21.977Z,4.10
2022-11-29T13:10:54.920Z,4.35
2022-11-29T13:13:34.341Z,4.10
2022-11-29T13:16:04.638Z,4.40
2022-11-29T13:18:34.887Z,4.25
2022-11-29T13:21:01.900Z,4.30
2022-11-29T13:26:35.235Z,4.40
2022-11-29T13:29:02.871Z,4.50
2022-11-29T13:31:30.526Z,4.32
2022-11-29T13:34:10.563Z,4.35
2022-11-29T13:36:44.002Z,4.35
2022-11-29T13:39:11.067Z,4.45
2022-11-29T13:41:48.607Z,4.83
2022-11-29T13:44:32.935Z,4.15
2022-11-29T13:46:59.925Z,4.18
2022-11-29T13:49:45.814Z,4.43
2022-11-29T13:52:23.205Z,4.30
2022-11-29T13:55:04.153Z,4.78
2022-11-29T13:58:14.324Z,4.20
2022-11-29T14:00:48.394Z,4.40
2022-11-29T14:03:24.819Z,4.47
2022-11-29T14:05:53.484Z,4.75
2022-11-29T14:08:25.634Z,5.57
2022-11-29T14:10:54.616Z,4.50
2022-11-29T14:13:23.526Z,5.10
2022-11-29T14:15:58.402Z,4.47
2022-11-29T14:18:37.897Z,4.28
2022-11-29T14:21:05.482Z,4.75
2022-11-29T14:23:35.547Z,4.70
2022-11-29T14:26:02.826Z,4.97
2022-11-29T14:28:31.829Z,4.35
2022-11-29T14:31:02.877Z,4.30
2022-11-29T14:33:37.245Z,4.50
2022-11-29T14:36:10.330Z,4.60
2022-11-29T14:38:43.247Z,4.45
2022-11-29T14:41:25.398Z,4.75
2022-11-29T14:44:04.220Z,4.35
2022-11-29T14:46:32.118Z,4.68
2022-11-29T14:49:00.827Z,4.30
